sensor_id;sensor_type;location;lat;lon;timestamp;pressure;altitude;pressure_sealevel;temperature;humidity
61961;BME280;47923;42.506;24.192;2023-11-19T00:01:34;94913.34;;;-0.82;91.53
61961;BME280;47923;42.506;24.192;2023-11-19T00:04:00;95283.97;;;1.50;92.27
61961;BME280;47923;42.506;24.192;2023-11-19T00:06:25;95272.53;;;1.49;91.88
61961;BME280;47923;42.506;24.192;2023-11-19T00:08:51;94966.53;;;-0.51;91.87
61961;BME280;47923;42.506;24.192;2023-11-19T00:11:16;95142.22;;;0.60;92.07
61961;BME280;47923;42.506;24.192;2023-11-19T00:13:42;95292.44;;;1.52;91.73
61961;BME280;47923;42.506;24.192;2023-11-19T00:16:08;95229.94;;;1.18;90.96
61961;BME280;47923;42.506;24.192;2023-11-19T00:18:35;95102.72;;;0.44;90.56
61961;BME280;47923;42.506;24.192;2023-11-19T00:21:01;95274.16;;;1.59;90.24
61961;BME280;47923;42.506;24.192;2023-11-19T00:23:27;94832.97;;;-1.41;89.81
61961;BME280;47923;42.506;24.192;2023-11-19T00:25:52;94877.34;;;-1.47;89.60
61961;BME280;47923;42.506;24.192;2023-11-19T00:28:18;95133.94;;;0.61;90.00
61961;BME280;47923;42.506;24.192;2023-11-19T00:30:44;94738.97;;;-1.93;89.45
61961;BME280;47923;42.506;24.192;2023-11-19T00:33:09;95286.25;;;1.65;89.09
61961;BME280;47923;42.506;24.192;2023-11-19T00:35:35;95284.69;;;1.64;88.38
61961;BME280;47923;42.506;24.192;2023-11-19T00:38:01;95196.97;;;1.05;88.26
61961;BME280;47923;42.506;24.192;2023-11-19T00:40:26;95286.94;;;1.48;88.84
61961;BME280;47923;42.506;24.192;2023-11-19T00:42:52;95220.31;;;1.08;88.86
61961;BME280;47923;42.506;24.192;2023-11-19T00:45:17;95261.31;;;1.30;88.01
61961;BME280;47923;42.506;24.192;2023-11-19T00:47:43;95295.69;;;1.71;88.34
61961;BME280;47923;42.506;24.192;2023-11-19T00:50:09;95319.22;;;1.78;88.30
61961;BME280;47923;42.506;24.192;2023-11-19T00:52:35;95299.38;;;1.84;88.09
61961;BME280;47923;42.506;24.192;2023-11-19T00:55:02;95054.25;;;0.03;87.79
61961;BME280;47923;42.506;24.192;2023-11-19T00:57:27;95304.06;;;1.87;88.28
61961;BME280;47923;42.506;24.192;2023-11-19T00:59:52;95309.56;;;1.90;87.02
61961;BME280;47923;42.506;24.192;2023-11-19T01:02:18;94974.53;;;-0.06;85.89
61961;BME280;47923;42.506;24.192;2023-11-19T01:04:43;95291.91;;;2.03;85.48
61961;BME280;47923;42.506;24.192;2023-11-19T01:07:09;95287.22;;;2.00;85.06
61961;BME280;47923;42.506;24.192;2023-11-19T01:09:38;95282.47;;;1.97;85.50
61961;BME280;47923;42.506;24.192;2023-11-19T01:12:04;95168.38;;;1.11;84.78
61961;BME280;47923;42.506;24.192;2023-11-19T01:14:30;95213.19;;;1.49;85.24
61961;BME280;47923;42.506;24.192;2023-11-19T01:16:56;95157.22;;;1.09;84.93
61961;BME280;47923;42.506;24.192;2023-11-19T01:19:22;94904.22;;;-0.53;84.88
61961;BME280;47923;42.506;24.192;2023-11-19T01:21:49;94994.13;;;0.07;85.15
61961;BME280;47923;42.506;24.192;2023-11-19T01:24:15;94949.25;;;-0.26;85.64
61961;BME280;47923;42.506;24.192;2023-11-19T01:26:41;95148.84;;;0.93;86.41
61961;BME280;47923;42.506;24.192;2023-11-19T01:29:11;95282.22;;;1.76;86.07
61961;BME280;47923;42.506;24.192;2023-11-19T01:31:40;95278.31;;;1.74;86.05
61961;BME280;47923;42.506;24.192;2023-11-19T01:34:05;94644.66;;;-2.53;85.45
61961;BME280;47923;42.506;24.192;2023-11-19T01:36:31;95282.97;;;1.68;86.45
61961;BME280;47923;42.506;24.192;2023-11-19T01:38:57;95147.25;;;0.61;86.61
61961;BME280;47923;42.506;24.192;2023-11-19T01:41:22;95198.72;;;1.10;85.72
61961;BME280;47923;42.506;24.192;2023-11-19T01:43:48;95152.88;;;0.82;84.83
61961;BME280;47923;42.506;24.192;2023-11-19T01:46:13;95305.25;;;1.72;85.22
61961;BME280;47923;42.506;24.192;2023-11-19T01:48:43;95127.59;;;0.71;84.69
61961;BME280;47923;42.506;24.192;2023-11-19T01:51:09;95287.09;;;1.74;84.93
61961;BME280;47923;42.506;24.192;2023-11-19T01:53:36;95270.78;;;1.76;84.73
61961;BME280;47923;42.506;24.192;2023-11-19T01:56:04;95287.09;;;1.74;84.93
61961;BME280;47923;42.506;24.192;2023-11-19T01:58:31;95282.19;;;1.67;84.91
61961;BME280;47923;42.506;24.192;2023-11-19T02:00:57;95278.28;;;1.65;85.02
61961;BME280;47923;42.506;24.192;2023-11-19T02:03:23;95291.59;;;1.65;84.90
61961;BME280;47923;42.506;24.192;2023-11-19T02:05:51;95191.66;;;1.05;84.90
61961;BME280;47923;42.506;24.192;2023-11-19T02:08:18;95160.66;;;0.78;85.50
61961;BME280;47923;42.506;24.192;2023-11-19T02:10:44;95290.44;;;1.57;84.96
61961;BME280;47923;42.506;24.192;2023-11-19T02:13:10;94878.06;;;-1.05;84.58
61961;BME280;47923;42.506;24.192;2023-11-19T02:15:36;95314.66;;;1.47;85.11
61961;BME280;47923;42.506;24.192;2023-11-19T02:18:20;95291.97;;;1.50;84.94
61961;BME280;47923;42.506;24.192;2023-11-19T02:20:48;95293.38;;;1.47;85.36
61961;BME280;47923;42.506;24.192;2023-11-19T02:23:14;94954.75;;;-0.95;85.03
61961;BME280;47923;42.506;24.192;2023-11-19T02:25:40;95086.28;;;-0.16;85.23
61961;BME280;47923;42.506;24.192;2023-11-19T02:28:07;95144.63;;;0.47;84.86
61961;BME280;47923;42.506;24.192;2023-11-19T02:30:32;95058.38;;;-0.28;84.13
61961;BME280;47923;42.506;24.192;2023-11-19T02:32:59;94906.44;;;-1.05;84.32
61961;BME280;47923;42.506;24.192;2023-11-19T02:35:27;95303.88;;;1.52;84.66
61961;BME280;47923;42.506;24.192;2023-11-19T02:37:54;95312.16;;;1.51;84.39
61961;BME280;47923;42.506;24.192;2023-11-19T02:40:19;95318.13;;;1.48;84.85
61961;BME280;47923;42.506;24.192;2023-11-19T02:42:45;94902.72;;;-1.18;83.98
61961;BME280;47923;42.506;24.192;2023-11-19T02:45:11;95223.31;;;0.93;84.39
61961;BME280;47923;42.506;24.192;2023-11-19T02:47:40;94866.53;;;-1.36;83.82
61961;BME280;47923;42.506;24.192;2023-11-19T02:50:08;95157.81;;;0.52;84.05
61961;BME280;47923;42.506;24.192;2023-11-19T02:52:46;95321.47;;;1.39;84.67
61961;BME280;47923;42.506;24.192;2023-11-19T02:55:12;95299.72;;;1.37;84.16
61961;BME280;47923;42.506;24.192;2023-11-19T02:57:41;95002.59;;;-0.50;84.68
61961;BME280;47923;42.506;24.192;2023-11-19T03:00:21;95310.03;;;1.39;84.69
61961;BME280;47923;42.506;24.192;2023-11-19T03:02:53;95084.25;;;-0.33;83.98
61961;BME280;47923;42.506;24.192;2023-11-19T03:05:26;95211.53;;;0.86;83.83
61961;BME280;47923;42.506;24.192;2023-11-19T03:07:55;94979.94;;;-0.70;83.66
61961;BME280;47923;42.506;24.192;2023-11-19T03:10:21;95302.63;;;1.27;83.94
61961;BME280;47923;42.506;24.192;2023-11-19T03:12:46;95260.47;;;0.98;84.27
61961;BME280;47923;42.506;24.192;2023-11-19T03:15:12;94859.13;;;-1.76;84.01
61961;BME280;47923;42.506;24.192;2023-11-19T03:17:42;94931.19;;;-1.10;84.57
61961;BME280;47923;42.506;24.192;2023-11-19T03:20:09;95296.75;;;1.17;84.80
61961;BME280;47923;42.506;24.192;2023-11-19T03:22:39;95300.69;;;1.19;84.44
61961;BME280;47923;42.506;24.192;2023-11-19T03:25:07;94824.88;;;-1.86;83.78
61961;BME280;47923;42.506;24.192;2023-11-19T03:27:37;94979.09;;;-1.06;84.43
61961;BME280;47923;42.506;24.192;2023-11-19T03:30:07;95324.38;;;1.07;84.55
61961;BME280;47923;42.506;24.192;2023-11-19T03:32:34;95287.28;;;0.88;84.77
61961;BME280;47923;42.506;24.192;2023-11-19T03:35:01;95306.22;;;1.09;84.41
61961;BME280;47923;42.506;24.192;2023-11-19T03:37:27;95140.03;;;0.03;84.46
61961;BME280;47923;42.506;24.192;2023-11-19T03:39:59;94856.16;;;-1.88;83.50
61961;BME280;47923;42.506;24.192;2023-11-19T03:42:28;95224.78;;;0.41;83.57
61961;BME280;47923;42.506;24.192;2023-11-19T03:44:56;95313.06;;;1.01;84.53
61961;BME280;47923;42.506;24.192;2023-11-19T03:47:22;94832.06;;;-2.46;84.24
61961;BME280;47923;42.506;24.192;2023-11-19T03:49:51;95167.88;;;-0.08;84.53
61961;BME280;47923;42.506;24.192;2023-11-19T03:52:17;95322.81;;;1.06;84.41
61961;BME280;47923;42.506;24.192;2023-11-19T03:54:44;95375.31;;;1.14;83.70
61961;BME280;47923;42.506;24.192;2023-11-19T03:57:10;95033.22;;;-0.80;83.26
61961;BME280;47923;42.506;24.192;2023-11-19T03:59:38;94956.53;;;-1.59;84.16
61961;BME280;47923;42.506;24.192;2023-11-19T04:02:04;95298.59;;;0.94;84.11
61961;BME280;47923;42.506;24.192;2023-11-19T04:04:29;94921.19;;;-1.54;83.75
61961;BME280;47923;42.506;24.192;2023-11-19T04:06:56;94988.34;;;-1.45;84.46
61961;BME280;47923;42.506;24.192;2023-11-19T04:09:22;95330.59;;;1.02;84.93
61961;BME280;47923;42.506;24.192;2023-11-19T04:11:47;94804.03;;;-2.47;83.77
61961;BME280;47923;42.506;24.192;2023-11-19T04:14:14;95337.25;;;1.14;83.78
61961;BME280;47923;42.506;24.192;2023-11-19T04:16:41;94686.41;;;-3.10;83.25
61961;BME280;47923;42.506;24.192;2023-11-19T04:19:07;94858.50;;;-2.46;83.09
61961;BME280;47923;42.506;24.192;2023-11-19T04:21:33;95362.47;;;1.16;83.73
61961;BME280;47923;42.506;24.192;2023-11-19T04:24:01;94817.69;;;-2.73;82.76
61961;BME280;47923;42.506;24.192;2023-11-19T04:26:27;94996.50;;;-1.14;83.26
61961;BME280;47923;42.506;24.192;2023-11-19T04:28:52;95266.28;;;0.64;82.55
61961;BME280;47923;42.506;24.192;2023-11-19T04:31:18;95347.19;;;1.22;82.79
61961;BME280;47923;42.506;24.192;2023-11-19T04:33:43;94836.91;;;-2.21;82.98
61961;BME280;47923;42.506;24.192;2023-11-19T04:36:10;94404.13;;;-5.16;82.54
61961;BME280;47923;42.506;24.192;2023-11-19T04:38:37;95351.06;;;1.16;83.64
61961;BME280;47923;42.506;24.192;2023-11-19T04:41:04;94981.47;;;-1.46;83.14
61961;BME280;47923;42.506;24.192;2023-11-19T04:43:31;95220.97;;;0.33;83.11
61961;BME280;47923;42.506;24.192;2023-11-19T04:45:56;94877.91;;;-1.77;82.57
61961;BME280;47923;42.506;24.192;2023-11-19T04:48:23;95321.59;;;1.12;82.33
61961;BME280;47923;42.506;24.192;2023-11-19T04:50:48;95344.72;;;1.25;82.06
61961;BME280;47923;42.506;24.192;2023-11-19T04:53:14;95289.72;;;0.98;81.91
61961;BME280;47923;42.506;24.192;2023-11-19T04:55:40;95377.16;;;1.27;82.15
61961;BME280;47923;42.506;24.192;2023-11-19T04:58:06;95339.13;;;1.13;82.26
61961;BME280;47923;42.506;24.192;2023-11-19T05:00:32;95086.06;;;-0.56;81.75
61961;BME280;47923;42.506;24.192;2023-11-19T05:02:57;95409.63;;;1.38;81.73
61961;BME280;47923;42.506;24.192;2023-11-19T05:05:23;95023.47;;;-0.98;81.31
61961;BME280;47923;42.506;24.192;2023-11-19T05:07:49;94940.34;;;-1.44;81.14
61961;BME280;47923;42.506;24.192;2023-11-19T05:10:14;94998.16;;;-1.04;81.18
61961;BME280;47923;42.506;24.192;2023-11-19T05:12:40;95364.56;;;1.42;81.12
61961;BME280;47923;42.506;24.192;2023-11-19T05:15:06;95154.72;;;0.01;81.56
61961;BME280;47923;42.506;24.192;2023-11-19T05:17:33;95360.63;;;1.39;81.14
61961;BME280;47923;42.506;24.192;2023-11-19T05:19:58;95372.72;;;1.45;81.42
61961;BME280;47923;42.506;24.192;2023-11-19T05:22:24;94900.97;;;-1.64;81.33
61961;BME280;47923;42.506;24.192;2023-11-19T05:24:49;95280.00;;;0.80;81.74
61961;BME280;47923;42.506;24.192;2023-11-19T05:27:15;95289.88;;;0.79;81.17
61961;BME280;47923;42.506;24.192;2023-11-19T05:29:40;95383.78;;;1.38;81.46
61961;BME280;47923;42.506;24.192;2023-11-19T05:32:07;95376.13;;;1.37;81.71
61961;BME280;47923;42.506;24.192;2023-11-19T05:34:32;95363.91;;;1.36;81.94
61961;BME280;47923;42.506;24.192;2023-11-19T05:36:58;95222.53;;;0.34;81.92
61961;BME280;47923;42.506;24.192;2023-11-19T05:39:23;95067.00;;;-0.58;81.72
61961;BME280;47923;42.506;24.192;2023-11-19T05:41:49;95358.09;;;1.34;81.82
61961;BME280;47923;42.506;24.192;2023-11-19T05:44:15;95219.69;;;0.31;81.17
61961;BME280;47923;42.506;24.192;2023-11-19T05:46:41;95273.03;;;0.84;81.77
61961;BME280;47923;42.506;24.192;2023-11-19T05:49:08;95377.59;;;1.43;81.81
61961;BME280;47923;42.506;24.192;2023-11-19T05:51:38;95361.00;;;1.46;81.89
61961;BME280;47923;42.506;24.192;2023-11-19T05:54:05;95073.72;;;-0.38;81.44
61961;BME280;47923;42.506;24.192;2023-11-19T05:56:32;94911.97;;;-1.57;81.20
61961;BME280;47923;42.506;24.192;2023-11-19T05:58:58;95275.56;;;0.89;80.70
61961;BME280;47923;42.506;24.192;2023-11-19T06:01:26;95332.81;;;1.45;80.58
61961;BME280;47923;42.506;24.192;2023-11-19T06:03:52;95380.00;;;1.76;80.37
61961;BME280;47923;42.506;24.192;2023-11-19T06:06:18;95345.81;;;1.47;79.75
61961;BME280;47923;42.506;24.192;2023-11-19T06:08:47;95443.22;;;1.84;79.49
61961;BME280;47923;42.506;24.192;2023-11-19T06:11:17;95047.41;;;-0.35;78.68
61961;BME280;47923;42.506;24.192;2023-11-19T06:13:46;94509.44;;;-3.70;78.26
61961;BME280;47923;42.506;24.192;2023-11-19T06:16:13;95022.94;;;-0.45;77.91
61961;BME280;47923;42.506;24.192;2023-11-19T06:18:39;95073.66;;;0.03;77.19
61961;BME280;47923;42.506;24.192;2023-11-19T06:21:07;95394.56;;;2.23;76.76
61961;BME280;47923;42.506;24.192;2023-11-19T06:23:35;94913.66;;;-0.84;76.21
61961;BME280;47923;42.506;24.192;2023-11-19T06:26:01;94529.69;;;-3.38;76.25
61961;BME280;47923;42.506;24.192;2023-11-19T06:28:27;94553.69;;;-3.35;76.00
61961;BME280;47923;42.506;24.192;2023-11-19T06:30:53;94580.13;;;-3.07;74.92
61961;BME280;47923;42.506;24.192;2023-11-19T06:33:19;95367.69;;;2.51;74.32
61961;BME280;47923;42.506;24.192;2023-11-19T06:35:45;95089.28;;;1.34;72.66
61961;BME280;47923;42.506;24.192;2023-11-19T06:38:10;95397.56;;;3.62;69.93
61961;BME280;47923;42.506;24.192;2023-11-19T06:40:36;95410.41;;;4.96;67.07
61961;BME280;47923;42.506;24.192;2023-11-19T06:43:02;95179.94;;;4.18;60.46
61961;BME280;47923;42.506;24.192;2023-11-19T06:45:33;95162.84;;;5.15;56.37
61961;BME280;47923;42.506;24.192;2023-11-19T06:48:03;95111.09;;;4.15;57.36
61961;BME280;47923;42.506;24.192;2023-11-19T06:50:30;95067.25;;;5.52;52.92
61961;BME280;47923;42.506;24.192;2023-11-19T06:52:56;95451.53;;;9.40;48.08
61961;BME280;47923;42.506;24.192;2023-11-19T06:55:21;95463.22;;;10.18;44.93
61961;BME280;47923;42.506;24.192;2023-11-19T06:57:47;95467.94;;;8.56;48.98
61961;BME280;47923;42.506;24.192;2023-11-19T07:00:13;95477.19;;;8.03;50.61
61961;BME280;47923;42.506;24.192;2023-11-19T07:02:38;95348.00;;;6.33;52.12
61961;BME280;47923;42.506;24.192;2023-11-19T07:05:05;95494.56;;;6.71;54.68
61961;BME280;47923;42.506;24.192;2023-11-19T07:07:34;95445.28;;;5.68;56.66
61961;BME280;47923;42.506;24.192;2023-11-19T07:10:01;95509.22;;;5.78;58.23
61961;BME280;47923;42.506;24.192;2023-11-19T07:12:27;95255.06;;;4.04;58.65
61961;BME280;47923;42.506;24.192;2023-11-19T07:14:53;95132.69;;;2.87;59.83
61961;BME280;47923;42.506;24.192;2023-11-19T07:17:20;95496.78;;;7.39;56.38
61961;BME280;47923;42.506;24.192;2023-11-19T07:19:47;95199.31;;;7.27;49.15
61961;BME280;47923;42.506;24.192;2023-11-19T07:22:15;95112.81;;;6.53;47.79
61961;BME280;47923;42.506;24.192;2023-11-19T07:24:40;95172.03;;;6.08;49.44
61961;BME280;47923;42.506;24.192;2023-11-19T07:27:07;95506.84;;;10.20;46.88
61961;BME280;47923;42.506;24.192;2023-11-19T07:29:34;95366.66;;;10.50;41.78
61961;BME280;47923;42.506;24.192;2023-11-19T07:32:00;95184.19;;;9.61;42.08
61961;BME280;47923;42.506;24.192;2023-11-19T07:34:27;95432.47;;;11.07;41.06
61961;BME280;47923;42.506;24.192;2023-11-19T07:36:54;95462.97;;;11.54;40.81
61961;BME280;47923;42.506;24.192;2023-11-19T07:39:24;95283.94;;;9.58;41.60
61961;BME280;47923;42.506;24.192;2023-11-19T07:41:50;95264.09;;;10.12;41.39
61961;BME280;47923;42.506;24.192;2023-11-19T07:44:16;95463.47;;;12.16;40.15
61961;BME280;47923;42.506;24.192;2023-11-19T07:46:42;95122.31;;;11.04;38.14
61961;BME280;47923;42.506;24.192;2023-11-19T07:49:07;95485.69;;;13.95;36.65
61961;BME280;47923;42.506;24.192;2023-11-19T07:51:35;95501.59;;;13.42;36.33
61961;BME280;47923;42.506;24.192;2023-11-19T07:54:00;95472.00;;;12.18;39.54
61961;BME280;47923;42.506;24.192;2023-11-19T07:56:26;95380.47;;;11.44;38.57
61961;BME280;47923;42.506;24.192;2023-11-19T07:58:54;95503.97;;;12.09;39.43
61961;BME280;47923;42.506;24.192;2023-11-19T08:01:20;95375.44;;;11.43;39.21
61961;BME280;47923;42.506;24.192;2023-11-19T08:03:46;95091.72;;;9.61;39.79
61961;BME280;47923;42.506;24.192;2023-11-19T08:06:11;95464.28;;;12.50;38.11
61961;BME280;47923;42.506;24.192;2023-11-19T08:08:37;95207.03;;;11.16;37.12
61961;BME280;47923;42.506;24.192;2023-11-19T08:11:04;95515.06;;;12.57;38.61
61961;BME280;47923;42.506;24.192;2023-11-19T08:13:33;95371.56;;;11.40;38.22
61961;BME280;47923;42.506;24.192;2023-11-19T08:15:59;95428.94;;;10.38;41.26
61961;BME280;47923;42.506;24.192;2023-11-19T08:18:24;95521.84;;;10.18;43.04
61961;BME280;47923;42.506;24.192;2023-11-19T08:20:50;95373.59;;;8.09;45.65
61961;BME280;47923;42.506;24.192;2023-11-19T08:23:19;95505.47;;;8.37;46.57
61961;BME280;47923;42.506;24.192;2023-11-19T08:25:45;95512.94;;;8.03;47.43
61961;BME280;47923;42.506;24.192;2023-11-19T08:28:10;95521.97;;;7.34;49.38
61961;BME280;47923;42.506;24.192;2023-11-19T08:30:36;95082.97;;;4.09;49.93
61961;BME280;47923;42.506;24.192;2023-11-19T08:33:01;94951.22;;;3.25;51.40
61961;BME280;47923;42.506;24.192;2023-11-19T08:35:31;95533.72;;;6.39;51.60
61961;BME280;47923;42.506;24.192;2023-11-19T08:37:57;95544.72;;;6.25;54.20
61961;BME280;47923;42.506;24.192;2023-11-19T08:40:24;95390.47;;;4.85;54.19
61961;BME280;47923;42.506;24.192;2023-11-19T08:42:51;95497.91;;;5.43;54.64
61961;BME280;47923;42.506;24.192;2023-11-19T08:45:16;95095.50;;;2.56;55.96
61961;BME280;47923;42.506;24.192;2023-11-19T08:47:42;95471.84;;;4.93;56.12
61961;BME280;47923;42.506;24.192;2023-11-19T08:50:08;95256.28;;;3.60;54.85
61961;BME280;47923;42.506;24.192;2023-11-19T08:52:33;95268.66;;;3.82;55.41
61961;BME280;47923;42.506;24.192;2023-11-19T08:54:59;95544.44;;;5.68;54.70
61961;BME280;47923;42.506;24.192;2023-11-19T08:57:25;95522.56;;;5.66;54.78
61961;BME280;47923;42.506;24.192;2023-11-19T08:59:50;95235.72;;;3.60;53.74
61961;BME280;47923;42.506;24.192;2023-11-19T09:02:16;95430.94;;;4.84;54.39
61961;BME280;47923;42.506;24.192;2023-11-19T09:04:41;95107.13;;;2.68;54.47
61961;BME280;47923;42.506;24.192;2023-11-19T09:07:07;95477.13;;;5.10;54.67
61961;BME280;47923;42.506;24.192;2023-11-19T09:09:35;95157.78;;;2.86;54.85
61961;BME280;47923;42.506;24.192;2023-11-19T09:12:02;95483.94;;;5.08;55.87
61961;BME280;47923;42.506;24.192;2023-11-19T09:14:29;95572.25;;;6.14;54.12
61961;BME280;47923;42.506;24.192;2023-11-19T09:16:56;95233.44;;;4.89;51.98
61961;BME280;47923;42.506;24.192;2023-11-19T09:19:21;95184.75;;;4.33;51.04
61961;BME280;47923;42.506;24.192;2023-11-19T09:21:47;95564.72;;;8.25;48.65
61961;BME280;47923;42.506;24.192;2023-11-19T09:24:13;95555.97;;;9.75;43.77
61961;BME280;47923;42.506;24.192;2023-11-19T09:26:39;95251.06;;;8.78;41.50
61961;BME280;47923;42.506;24.192;2023-11-19T09:29:07;95180.56;;;9.73;39.77
61961;BME280;47923;42.506;24.192;2023-11-19T09:31:33;95297.75;;;11.40;38.38
61961;BME280;47923;42.506;24.192;2023-11-19T09:34:00;95552.13;;;12.83;37.46
61961;BME280;47923;42.506;24.192;2023-11-19T09:36:25;95297.56;;;11.85;36.30
61961;BME280;47923;42.506;24.192;2023-11-19T09:38:51;95397.56;;;12.05;36.06
61961;BME280;47923;42.506;24.192;2023-11-19T09:41:17;95501.69;;;13.08;36.92
61961;BME280;47923;42.506;24.192;2023-11-19T09:43:45;95424.66;;;12.38;36.41
61961;BME280;47923;42.506;24.192;2023-11-19T09:46:13;95465.44;;;12.86;35.46
61961;BME280;47923;42.506;24.192;2023-11-19T09:48:40;95553.41;;;13.26;35.23
61961;BME280;47923;42.506;24.192;2023-11-19T09:51:09;95186.00;;;11.32;35.47
61961;BME280;47923;42.506;24.192;2023-11-19T09:53:36;95499.09;;;13.67;35.69
61961;BME280;47923;42.506;24.192;2023-11-19T09:56:03;94993.97;;;10.54;35.25
61961;BME280;47923;42.506;24.192;2023-11-19T09:58:30;95419.78;;;14.02;35.14
61961;BME280;47923;42.506;24.192;2023-11-19T10:00:57;95422.66;;;13.61;32.79
61961;BME280;47923;42.506;24.192;2023-11-19T10:03:24;95544.94;;;14.37;34.25
61961;BME280;47923;42.506;24.192;2023-11-19T10:05:51;95470.00;;;14.36;34.18
61961;BME280;47923;42.506;24.192;2023-11-19T10:08:16;95541.56;;;14.48;33.59
61961;BME280;47923;42.506;24.192;2023-11-19T10:10:42;95550.94;;;14.64;33.31
61961;BME280;47923;42.506;24.192;2023-11-19T10:13:08;95550.81;;;14.43;32.78
61961;BME280;47923;42.506;24.192;2023-11-19T10:15:37;95287.94;;;12.73;33.54
61961;BME280;47923;42.506;24.192;2023-11-19T10:18:03;95395.69;;;13.93;34.87
61961;BME280;47923;42.506;24.192;2023-11-19T10:20:40;95399.91;;;13.83;32.11
61961;BME280;47923;42.506;24.192;2023-11-19T10:23:06;95547.63;;;14.27;32.74
61961;BME280;47923;42.506;24.192;2023-11-19T10:25:33;95544.38;;;14.07;34.42
61961;BME280;47923;42.506;24.192;2023-11-19T10:27:59;95576.94;;;13.18;34.82
61961;BME280;47923;42.506;24.192;2023-11-19T10:30:27;95536.31;;;12.25;37.42
61961;BME280;47923;42.506;24.192;2023-11-19T10:33:05;95146.31;;;9.12;38.30
61961;BME280;47923;42.506;24.192;2023-11-19T10:35:35;95428.72;;;10.08;38.72
61961;BME280;47923;42.506;24.192;2023-11-19T10:38:13;95190.63;;;7.93;40.22
61961;BME280;47923;42.506;24.192;2023-11-19T10:40:40;95532.16;;;9.30;40.92
61961;BME280;47923;42.506;24.192;2023-11-19T10:43:06;94998.03;;;6.19;43.29
61961;BME280;47923;42.506;24.192;2023-11-19T10:45:36;95420.84;;;9.29;41.30
61961;BME280;47923;42.506;24.192;2023-11-19T10:48:03;95516.44;;;10.18;40.99
61961;BME280;47923;42.506;24.192;2023-11-19T10:50:36;95497.97;;;10.36;41.21
61961;BME280;47923;42.506;24.192;2023-11-19T10:53:03;95375.91;;;9.02;40.44
61961;BME280;47923;42.506;24.192;2023-11-19T10:55:30;95506.44;;;9.83;41.32
61961;BME280;47923;42.506;24.192;2023-11-19T10:58:00;95342.88;;;9.40;41.10
61961;BME280;47923;42.506;24.192;2023-11-19T11:00:28;95378.25;;;10.51;38.97
61961;BME280;47923;42.506;24.192;2023-11-19T11:03:00;95490.72;;;11.51;38.19
61961;BME280;47923;42.506;24.192;2023-11-19T11:05:26;95505.91;;;12.08;37.74
61961;BME280;47923;42.506;24.192;2023-11-19T11:07:55;95410.09;;;11.33;37.21
61961;BME280;47923;42.506;24.192;2023-11-19T11:10:24;95491.88;;;11.50;37.45
61961;BME280;47923;42.506;24.192;2023-11-19T11:12:52;95412.13;;;10.91;38.06
61961;BME280;47923;42.506;24.192;2023-11-19T11:15:26;95490.19;;;11.42;37.98
61961;BME280;47923;42.506;24.192;2023-11-19T11:17:58;95499.72;;;11.09;38.33
61961;BME280;47923;42.506;24.192;2023-11-19T11:20:27;95483.91;;;10.11;40.04
61961;BME280;47923;42.506;24.192;2023-11-19T11:28:57;95482.50;;;10.17;41.56
61961;BME280;47923;42.506;24.192;2023-11-19T11:34:52;95431.25;;;9.47;41.09
61961;BME280;47923;42.506;24.192;2023-11-19T11:37:34;95158.44;;;7.50;41.73
61961;BME280;47923;42.506;24.192;2023-11-19T11:40:03;95143.97;;;7.26;42.12
61961;BME280;47923;42.506;24.192;2023-11-19T11:42:33;94980.34;;;5.65;43.10
61961;BME280;47923;42.506;24.192;2023-11-19T11:45:06;95345.28;;;7.19;44.30
61961;BME280;47923;42.506;24.192;2023-11-19T11:50:09;95260.91;;;6.55;45.84
61961;BME280;47923;42.506;24.192;2023-11-19T11:55:33;95381.25;;;6.65;47.24
61961;BME280;47923;42.506;24.192;2023-11-19T11:57:59;94966.44;;;3.75;48.20
61961;BME280;47923;42.506;24.192;2023-11-19T12:00:33;95430.88;;;6.47;49.22
61961;BME280;47923;42.506;24.192;2023-11-19T12:03:05;95402.81;;;6.12;49.75
61961;BME280;47923;42.506;24.192;2023-11-19T12:05:32;95415.22;;;6.04;49.99
61961;BME280;47923;42.506;24.192;2023-11-19T12:08:06;95414.66;;;5.90;50.11
61961;BME280;47923;42.506;24.192;2023-11-19T12:10:49;95183.41;;;3.89;51.53
61961;BME280;47923;42.506;24.192;2023-11-19T12:13:16;95429.44;;;5.54;51.46
61961;BME280;47923;42.506;24.192;2023-11-19T12:18:29;95121.28;;;3.63;51.71
61961;BME280;47923;42.506;24.192;2023-11-19T12:20:56;95064.03;;;3.04;52.44
61961;BME280;47923;42.506;24.192;2023-11-19T12:23:24;95176.94;;;3.52;52.58
61961;BME280;47923;42.506;24.192;2023-11-19T12:25:50;95418.38;;;5.35;52.78
61961;BME280;47923;42.506;24.192;2023-11-19T12:28:16;95427.47;;;5.21;53.38
61961;BME280;47923;42.506;24.192;2023-11-19T12:30:43;95376.22;;;4.72;53.50
61961;BME280;47923;42.506;24.192;2023-11-19T12:33:09;95362.59;;;4.86;53.58
61961;BME280;47923;42.506;24.192;2023-11-19T12:35:43;95120.06;;;3.51;53.31
61961;BME280;47923;42.506;24.192;2023-11-19T12:38:22;95408.13;;;5.37;53.11
61961;BME280;47923;42.506;24.192;2023-11-19T12:41:08;94996.56;;;2.40;53.63
61961;BME280;47923;42.506;24.192;2023-11-19T12:43:39;95384.38;;;4.76;54.17
61961;BME280;47923;42.506;24.192;2023-11-19T12:48:43;95161.47;;;3.28;53.43
61961;BME280;47923;42.506;24.192;2023-11-19T12:51:09;95422.13;;;4.83;53.92
61961;BME280;47923;42.506;24.192;2023-11-19T12:53:47;95414.84;;;4.92;54.16
61961;BME280;47923;42.506;24.192;2023-11-19T12:56:14;95027.13;;;2.60;54.69
61961;BME280;47923;42.506;24.192;2023-11-19T12:58:41;95394.00;;;4.98;54.37
61961;BME280;47923;42.506;24.192;2023-11-19T13:01:08;95405.22;;;4.91;54.70
61961;BME280;47923;42.506;24.192;2023-11-19T13:03:38;95403.03;;;4.93;55.17
61961;BME280;47923;42.506;24.192;2023-11-19T13:06:12;95398.53;;;4.77;54.60
61961;BME280;47923;42.506;24.192;2023-11-19T13:11:04;94938.97;;;1.92;54.92
61961;BME280;47923;42.506;24.192;2023-11-19T13:13:29;95407.94;;;4.83;55.32
61961;BME280;47923;42.506;24.192;2023-11-19T13:16:05;95373.59;;;4.55;54.71
61961;BME280;47923;42.506;24.192;2023-11-19T13:18:31;95406.38;;;4.82;55.20
61961;BME280;47923;42.506;24.192;2023-11-19T13:20:56;95398.69;;;4.80;55.29